createdAt,value
2019-01-23T00:02:05.423Z,21.39
2019-01-23T00:04:31.409Z,21.38
2019-01-23T00:06:57.411Z,21.49
2019-01-23T00:09:23.407Z,21.57
2019-01-23T00:11:49.409Z,21.64
2019-01-23T00:14:15.383Z,21.56
2019-01-23T00:16:41.388Z,21.55
2019-01-23T00:19:07.444Z,21.57
2019-01-23T00:21:34.499Z,21.43
2019-01-23T00:24:00.484Z,21.44
2019-01-23T00:26:26.492Z,21.46
2019-01-23T00:28:52.557Z,21.52
2019-01-23T00:31:18.577Z,21.54
2019-01-23T00:33:44.584Z,21.43
2019-01-23T00:36:10.595Z,21.51
2019-01-23T00:38:36.597Z,21.49
2019-01-23T00:41:02.640Z,21.50
2019-01-23T00:43:28.624Z,21.53
2019-01-23T00:45:54.646Z,21.48
2019-01-23T00:48:20.647Z,21.41
2019-01-23T00:50:46.807Z,21.50
2019-01-23T00:53:12.815Z,21.57
2019-01-23T00:55:38.882Z,21.52
2019-01-23T00:58:04.879Z,21.61
2019-01-23T01:00:30.871Z,21.71
2019-01-23T01:02:56.871Z,21.70
2019-01-23T01:05:22.878Z,21.86
2019-01-23T01:07:48.888Z,21.78
2019-01-23T01:10:14.868Z,21.68
2019-01-23T01:12:40.880Z,21.59
2019-01-23T01:15:13.090Z,21.68
2019-01-23T01:17:34.588Z,21.53
2019-01-23T01:20:00.588Z,21.57
2019-01-23T01:22:26.569Z,21.50
2019-01-23T01:24:52.555Z,21.32
2019-01-23T01:27:18.545Z,21.35
2019-01-23T01:29:44.536Z,21.47
2019-01-23T01:32:10.531Z,21.55
2019-01-23T01:34:36.546Z,21.35
2019-01-23T01:37:02.546Z,21.56
2019-01-23T01:39:28.528Z,21.58
2019-01-23T01:41:54.527Z,21.44
2019-01-23T01:44:20.521Z,21.38
2019-01-23T01:46:46.610Z,21.53
2019-01-23T01:49:12.602Z,21.30
2019-01-23T01:51:38.649Z,21.48
2019-01-23T01:54:04.629Z,21.56
2019-01-23T01:56:30.612Z,21.45
2019-01-23T01:59:02.605Z,21.43
2019-01-23T02:01:24.397Z,21.29
2019-01-23T02:03:50.398Z,21.43
2019-01-23T02:06:16.370Z,21.44
2019-01-23T02:08:42.404Z,21.40
2019-01-23T02:11:08.419Z,21.31
2019-01-23T02:13:34.390Z,21.40
2019-01-23T02:16:00.385Z,21.48
2019-01-23T02:18:26.395Z,21.35
2019-01-23T02:20:52.407Z,21.46
2019-01-23T02:23:18.388Z,21.44
2019-01-23T02:25:44.376Z,21.39
2019-01-23T02:28:10.349Z,21.35
2019-01-23T02:30:36.340Z,21.45
2019-01-23T02:33:02.336Z,21.32
2019-01-23T02:35:28.329Z,21.65
2019-01-23T02:37:54.328Z,21.61
2019-01-23T02:40:20.440Z,21.46
2019-01-23T02:42:46.455Z,21.40
2019-01-23T02:45:12.464Z,21.38
2019-01-23T02:47:38.446Z,21.58
2019-01-23T02:50:04.437Z,21.50
2019-01-23T02:52:30.426Z,21.40
2019-01-23T02:54:56.465Z,21.38
2019-01-23T02:57:22.449Z,21.44
2019-01-23T02:59:48.445Z,21.60
2019-01-23T03:02:14.421Z,21.50
2019-01-23T03:04:40.417Z,21.43
2019-01-23T03:07:06.442Z,21.49
2019-01-23T03:09:32.442Z,21.56
2019-01-23T03:11:58.501Z,21.54
2019-01-23T03:14:24.480Z,21.51
2019-01-23T03:16:50.508Z,21.56
2019-01-23T03:19:16.503Z,21.84
2019-01-23T03:21:42.572Z,21.68
2019-01-23T03:24:08.565Z,21.68
2019-01-23T03:26:34.553Z,21.69
2019-01-23T03:29:00.580Z,21.98
2019-01-23T03:31:26.705Z,21.78
2019-01-23T03:33:52.684Z,21.62
2019-01-23T03:36:18.673Z,21.74
2019-01-23T03:38:44.679Z,21.94
2019-01-23T03:41:10.707Z,21.97
2019-01-23T03:43:36.691Z,21.77
2019-01-23T03:46:02.708Z,21.92
2019-01-23T03:48:28.697Z,22.11
2019-01-23T03:50:54.668Z,22.10
2019-01-23T03:53:20.684Z,22.08
2019-01-23T03:55:46.664Z,21.98
2019-01-23T03:58:12.659Z,22.01
2019-01-23T04:00:38.666Z,22.02
2019-01-23T04:03:04.764Z,21.92
2019-01-23T04:05:31.138Z,21.94
2019-01-23T04:07:57.312Z,22.13
2019-01-23T04:10:23.319Z,22.10
2019-01-23T04:12:49.313Z,21.98
2019-01-23T04:15:15.294Z,22.06
2019-01-23T04:17:41.311Z,22.09
2019-01-23T04:20:07.300Z,22.03
2019-01-23T04:22:33.305Z,22.11
2019-01-23T04:24:59.431Z,22.12
2019-01-23T04:27:25.424Z,21.87
2019-01-23T04:29:51.419Z,21.89
2019-01-23T04:32:17.429Z,22.04
2019-01-23T04:34:43.427Z,22.07
2019-01-23T04:37:09.439Z,21.95
2019-01-23T04:39:35.427Z,21.86
2019-01-23T04:42:01.431Z,22.02
2019-01-23T04:44:27.413Z,22.06
2019-01-23T04:46:53.411Z,22.11
2019-01-23T04:49:19.401Z,21.95
2019-01-23T04:51:45.412Z,21.91
2019-01-23T04:54:11.453Z,22.05
2019-01-23T04:56:37.443Z,22.12
2019-01-23T04:59:03.434Z,21.91
2019-01-23T05:01:29.408Z,21.94
2019-01-23T05:03:55.402Z,22.20
2019-01-23T05:06:21.452Z,22.16
2019-01-23T05:08:47.452Z,21.87
2019-01-23T05:11:13.442Z,21.92
2019-01-23T05:13:39.509Z,22.13
2019-01-23T05:16:05.532Z,22.18
2019-01-23T05:18:31.569Z,21.89
2019-01-23T05:20:57.566Z,21.79
2019-01-23T05:23:23.566Z,21.99
2019-01-23T05:25:49.559Z,21.95
2019-01-23T05:28:15.607Z,21.82
2019-01-23T05:30:41.591Z,21.85
2019-01-23T05:33:07.564Z,22.03
2019-01-23T05:35:33.555Z,22.08
2019-01-23T05:37:59.556Z,21.99
2019-01-23T05:40:25.541Z,21.76
2019-01-23T05:42:51.652Z,21.90
2019-01-23T05:45:17.658Z,21.98
2019-01-23T05:47:43.706Z,21.76
2019-01-23T05:50:09.697Z,21.80
2019-01-23T05:52:35.671Z,21.87
2019-01-23T05:55:01.650Z,21.98
2019-01-23T05:57:27.699Z,21.83
2019-01-23T05:59:53.722Z,21.76
2019-01-23T06:02:19.765Z,21.87
2019-01-23T06:04:45.758Z,22.04
2019-01-23T06:07:11.744Z,21.90
2019-01-23T06:09:39.820Z,21.75
2019-01-23T06:12:05.804Z,21.79
2019-01-23T06:14:32.455Z,22.05
2019-01-23T06:16:58.457Z,21.81
2019-01-23T06:19:24.453Z,21.76
2019-01-23T06:21:50.448Z,21.83
2019-01-23T06:24:16.443Z,21.95
2019-01-23T06:26:42.530Z,21.93
2019-01-23T06:29:08.565Z,21.84
2019-01-23T06:31:34.602Z,21.85
2019-01-23T06:34:00.587Z,22.11
2019-01-23T06:36:26.581Z,22.07
2019-01-23T06:38:52.551Z,21.79
2019-01-23T06:41:18.548Z,21.84
2019-01-23T06:43:44.532Z,22.03
2019-01-23T06:46:10.536Z,21.95
2019-01-23T06:48:36.533Z,21.82
2019-01-23T06:51:02.540Z,21.81
2019-01-23T06:53:28.524Z,21.96
2019-01-23T06:55:55.596Z,21.93
2019-01-23T06:58:21.638Z,21.83
2019-01-23T07:00:47.689Z,21.91
2019-01-23T07:03:13.678Z,21.86
2019-01-23T07:05:39.676Z,21.89
2019-01-23T07:08:05.697Z,21.85
2019-01-23T07:10:31.679Z,21.86
2019-01-23T07:12:57.680Z,21.92
2019-01-23T07:15:23.673Z,21.90
2019-01-23T07:17:49.697Z,21.82
2019-01-23T07:20:15.707Z,21.88
2019-01-23T07:22:42.712Z,21.88
2019-01-23T07:25:08.736Z,22.03
2019-01-23T07:27:34.822Z,21.90
2019-01-23T07:30:00.859Z,21.87
2019-01-23T07:32:26.913Z,21.87
2019-01-23T07:34:52.897Z,22.01
2019-01-23T07:37:18.890Z,21.86
2019-01-23T07:39:44.878Z,21.94
2019-01-23T07:42:10.946Z,21.87
2019-01-23T07:44:36.932Z,22.05
2019-01-23T07:47:02.944Z,22.06
2019-01-23T07:49:29.807Z,21.86
2019-01-23T07:51:55.929Z,21.97
2019-01-23T07:54:22.037Z,22.09
2019-01-23T07:56:49.013Z,22.10
2019-01-23T07:59:15.016Z,21.99
2019-01-23T08:01:41.025Z,22.02
2019-01-23T08:04:07.073Z,21.98
2019-01-23T08:06:33.107Z,21.97
2019-01-23T08:08:59.128Z,21.94
2019-01-23T08:11:25.143Z,21.94
2019-01-23T08:13:51.219Z,21.94
2019-01-23T08:16:19.363Z,22.10
2019-01-23T08:18:47.473Z,22.08
2019-01-23T08:21:13.500Z,22.11
2019-01-23T08:23:39.531Z,22.06
2019-01-23T08:26:05.524Z,22.01
2019-01-23T08:28:31.542Z,22.17
2019-01-23T08:30:57.533Z,22.30
2019-01-23T08:33:23.599Z,22.27
2019-01-23T08:35:49.605Z,22.19
2019-01-23T08:38:15.601Z,22.03
2019-01-23T08:40:41.629Z,21.93
2019-01-23T08:43:07.606Z,21.88
2019-01-23T08:45:33.627Z,22.25
2019-01-23T08:47:59.601Z,22.16
2019-01-23T08:50:25.603Z,22.11
2019-01-23T08:52:51.603Z,22.36
2019-01-23T08:55:17.583Z,22.51
2019-01-23T08:57:43.595Z,22.55
2019-01-23T09:00:09.673Z,22.16
2019-01-23T09:02:35.706Z,22.27
2019-01-23T09:05:01.750Z,22.39
2019-01-23T09:07:27.749Z,22.35
2019-01-23T09:09:53.770Z,22.09
2019-01-23T09:12:19.763Z,22.12
2019-01-23T09:14:45.765Z,22.31
2019-01-23T09:17:11.746Z,22.40
2019-01-23T09:19:37.804Z,22.14
2019-01-23T09:22:03.912Z,22.14
2019-01-23T09:24:29.927Z,22.38
2019-01-23T09:26:55.922Z,22.44
2019-01-23T09:29:21.977Z,22.14
2019-01-23T09:31:47.968Z,22.15
2019-01-23T09:34:13.946Z,22.25
2019-01-23T09:36:39.996Z,21.68
2019-01-23T09:39:06.011Z,21.26
2019-01-23T09:41:32.078Z,21.33
2019-01-23T09:43:58.128Z,21.51
2019-01-23T09:46:24.144Z,21.44
2019-01-23T09:48:51.512Z,21.52
2019-01-23T09:51:17.681Z,21.45
2019-01-23T09:53:43.723Z,21.43
2019-01-23T09:56:09.726Z,21.55
2019-01-23T09:58:35.708Z,21.76
2019-01-23T10:01:01.776Z,21.78
2019-01-23T10:03:27.820Z,22.22
2019-01-23T10:05:53.798Z,22.04
2019-01-23T10:08:20.832Z,21.78
2019-01-23T10:10:46.810Z,22.28
2019-01-23T10:13:12.831Z,22.26
2019-01-23T10:15:38.816Z,21.82
2019-01-23T10:18:04.824Z,21.88
2019-01-23T10:20:30.827Z,22.08
2019-01-23T10:22:56.804Z,22.13
2019-01-23T10:25:22.811Z,22.00
2019-01-23T10:27:48.816Z,22.15
2019-01-23T10:30:14.878Z,22.20
2019-01-23T10:32:40.875Z,21.91
2019-01-23T10:35:06.897Z,21.91
2019-01-23T10:37:32.887Z,21.87
2019-01-23T10:39:58.928Z,22.02
2019-01-23T10:42:24.919Z,21.90
2019-01-23T10:44:50.949Z,21.96
2019-01-23T10:47:16.931Z,21.98
2019-01-23T10:49:43.001Z,22.06
2019-01-23T10:52:09.405Z,21.90
2019-01-23T10:54:35.490Z,22.04
2019-01-23T10:57:01.528Z,21.98
2019-01-23T10:59:28.593Z,22.05
2019-01-23T11:01:54.732Z,22.03
2019-01-23T11:04:21.071Z,22.00
2019-01-23T11:06:47.094Z,21.94
2019-01-23T11:09:14.179Z,21.96
2019-01-23T11:11:41.238Z,21.97
2019-01-23T11:14:07.283Z,21.97
2019-01-23T11:16:33.368Z,21.93
2019-01-23T11:18:59.495Z,22.02
2019-01-23T11:21:26.519Z,22.10
2019-01-23T11:23:52.575Z,22.01
2019-01-23T11:26:19.245Z,22.04
2019-01-23T11:28:45.354Z,22.02
2019-01-23T11:31:11.788Z,22.00
2019-01-23T11:33:37.781Z,22.02
2019-01-23T11:36:04.213Z,22.08
2019-01-23T11:38:30.588Z,22.05
2019-01-23T11:40:56.592Z,22.05
2019-01-23T11:43:22.623Z,22.02
2019-01-23T11:45:48.682Z,21.94
2019-01-23T11:48:14.860Z,21.97
2019-01-23T11:50:40.985Z,21.98
2019-01-23T11:53:08.126Z,22.10
2019-01-23T11:55:34.493Z,22.08
2019-01-23T11:58:03.749Z,22.00
2019-01-23T12:00:29.755Z,22.17
2019-01-23T12:02:56.854Z,22.26
2019-01-23T12:05:22.893Z,22.14
2019-01-23T12:07:48.917Z,22.07
2019-01-23T12:10:14.996Z,22.03
2019-01-23T12:12:41.022Z,22.02
2019-01-23T12:15:07.124Z,22.16
2019-01-23T12:17:33.212Z,22.18
2019-01-23T12:19:59.318Z,22.15
2019-01-23T12:22:25.451Z,22.20
2019-01-23T12:24:51.550Z,22.10
2019-01-23T12:27:17.599Z,22.10
2019-01-23T12:29:43.621Z,22.07
2019-01-23T12:32:09.600Z,22.25
2019-01-23T12:34:35.669Z,22.39
2019-01-23T12:37:01.766Z,22.23
2019-01-23T12:39:28.122Z,22.13
2019-01-23T12:41:54.277Z,22.24
2019-01-23T12:44:20.329Z,22.18
2019-01-23T12:46:46.359Z,22.17
2019-01-23T12:49:12.410Z,22.21
2019-01-23T12:51:38.500Z,22.16
2019-01-23T12:54:04.499Z,22.23
2019-01-23T12:56:30.674Z,22.21
2019-01-23T12:58:56.739Z,22.17
2019-01-23T13:01:28.706Z,22.20
2019-01-23T13:03:54.725Z,22.25
2019-01-23T13:06:20.821Z,22.15
2019-01-23T13:08:46.926Z,22.09
2019-01-23T13:11:13.937Z,22.15
2019-01-23T13:13:40.040Z,22.10
2019-01-23T13:16:06.529Z,22.11
2019-01-23T13:18:32.876Z,22.09
2019-01-23T13:20:59.050Z,22.00
2019-01-23T13:23:25.057Z,21.99
2019-01-23T13:25:51.118Z,21.93
2019-01-23T13:28:17.125Z,22.00
2019-01-23T13:30:43.113Z,22.02
2019-01-23T13:33:09.191Z,22.02
2019-01-23T13:35:35.325Z,21.94
2019-01-23T13:38:01.643Z,21.98
2019-01-23T13:40:27.654Z,22.05
2019-01-23T13:42:53.741Z,22.01
2019-01-23T13:45:20.083Z,21.98
2019-01-23T13:47:46.114Z,21.90
2019-01-23T13:50:12.101Z,22.09
2019-01-23T13:52:38.105Z,22.16
2019-01-23T13:55:04.090Z,22.19
2019-01-23T13:57:30.081Z,22.17
2019-01-23T13:59:58.135Z,22.16
2019-01-23T14:02:24.202Z,22.19
2019-01-23T14:04:50.270Z,22.23
2019-01-23T14:07:16.413Z,22.23
2019-01-23T14:09:42.482Z,22.18
2019-01-23T14:12:13.340Z,22.06
2019-01-23T14:14:39.405Z,22.20
2019-01-23T14:17:05.896Z,22.16
2019-01-23T14:19:31.991Z,22.09
2019-01-23T14:21:58.516Z,22.00
2019-01-23T14:24:30.604Z,22.03
2019-01-23T14:26:57.067Z,22.01
2019-01-23T14:29:23.939Z,21.99
2019-01-23T14:31:49.945Z,21.91
2019-01-23T14:34:15.978Z,21.94
2019-01-23T14:36:42.073Z,21.97
2019-01-23T14:39:08.129Z,22.03
2019-01-23T14:41:34.171Z,22.02
2019-01-23T14:44:00.164Z,22.04
2019-01-23T14:46:26.178Z,22.07
2019-01-23T14:48:52.187Z,22.04
2019-01-23T14:51:19.137Z,22.09
2019-01-23T14:53:45.116Z,22.05
2019-01-23T14:56:11.181Z,22.11
2019-01-23T14:58:38.055Z,22.03
2019-01-23T15:01:04.100Z,22.15
2019-01-23T15:03:30.250Z,22.30
2019-01-23T15:05:56.642Z,22.28
2019-01-23T15:08:22.692Z,22.51
2019-01-23T15:10:48.789Z,22.24
2019-01-23T15:13:14.829Z,21.99
2019-01-23T15:15:40.869Z,21.93
2019-01-23T15:20:50.731Z,21.75
2019-01-23T15:23:16.870Z,21.73
2019-01-23T15:25:43.307Z,21.76
2019-01-23T15:30:41.096Z,21.71
2019-01-23T15:33:07.582Z,21.67
2019-01-23T15:35:34.695Z,21.64
2019-01-23T15:38:02.814Z,21.63
2019-01-23T15:40:28.890Z,21.70
2019-01-23T15:42:54.997Z,21.74
2019-01-23T15:45:22.947Z,21.78
2019-01-23T15:47:49.011Z,21.73
2019-01-23T15:50:15.240Z,21.66
2019-01-23T15:52:41.344Z,21.68
2019-01-23T15:57:38.548Z,21.66
2019-01-23T16:00:04.577Z,21.57
2019-01-23T16:02:30.735Z,21.62
2019-01-23T16:07:28.166Z,21.66
2019-01-23T16:09:54.324Z,21.57
2019-01-23T16:12:21.119Z,21.55
2019-01-23T16:14:47.230Z,21.65
2019-01-23T16:17:13.279Z,21.68
2019-01-23T16:19:39.355Z,21.71
2019-01-23T16:22:05.433Z,21.73
2019-01-23T16:24:32.018Z,21.78
2019-01-23T16:26:58.020Z,21.88
2019-01-23T16:29:24.428Z,21.93
2019-01-23T16:31:54.094Z,21.86
2019-01-23T16:34:19.628Z,21.90
2019-01-23T16:36:45.709Z,21.94
2019-01-23T16:39:11.740Z,21.94
2019-01-23T16:41:38.668Z,22.01
2019-01-23T16:44:04.713Z,22.22
2019-01-23T16:46:30.718Z,22.04
2019-01-23T16:48:56.787Z,22.08
2019-01-23T16:51:22.837Z,22.23
2019-01-23T16:53:48.859Z,22.15
2019-01-23T16:56:14.972Z,22.11
2019-01-23T16:58:40.953Z,22.04
2019-01-23T17:01:06.972Z,22.08
2019-01-23T17:03:32.972Z,22.11
2019-01-23T17:05:58.970Z,22.10
2019-01-23T17:08:25.000Z,22.07
2019-01-23T17:10:51.018Z,22.02
2019-01-23T17:13:19.177Z,22.03
2019-01-23T17:15:45.228Z,21.98
2019-01-23T17:18:11.370Z,21.90
2019-01-23T17:20:37.392Z,21.94
2019-01-23T17:23:03.423Z,22.04
2019-01-23T17:25:29.490Z,22.03
2019-01-23T17:27:55.652Z,22.07
2019-01-23T17:30:21.639Z,21.98
2019-01-23T17:32:53.500Z,21.97
2019-01-23T17:35:19.538Z,22.04
2019-01-23T17:37:45.640Z,21.98
2019-01-23T17:40:11.677Z,21.97
2019-01-23T17:42:37.685Z,21.93
2019-01-23T17:45:03.713Z,21.88
2019-01-23T17:47:29.731Z,21.88
2019-01-23T17:49:55.783Z,21.84
2019-01-23T17:52:21.825Z,21.83
2019-01-23T17:54:47.917Z,21.84
2019-01-23T17:57:13.936Z,21.81
2019-01-23T17:59:39.945Z,21.75
2019-01-23T18:02:06.053Z,21.79
2019-01-23T18:04:32.042Z,21.92
2019-01-23T18:06:58.101Z,21.94
2019-01-23T18:09:24.128Z,21.92
2019-01-23T18:11:50.166Z,21.89
2019-01-23T18:14:16.177Z,21.91
2019-01-23T18:16:42.242Z,21.94
2019-01-23T18:19:09.374Z,21.90
2019-01-23T18:21:35.435Z,21.90
2019-01-23T18:24:01.525Z,21.86
2019-01-23T18:26:28.561Z,21.84
2019-01-23T18:28:54.591Z,21.83
2019-01-23T18:31:20.783Z,21.78
2019-01-23T18:33:46.827Z,21.79
2019-01-23T18:36:12.818Z,21.84
2019-01-23T18:38:38.858Z,21.79
2019-01-23T18:41:04.897Z,21.76
2019-01-23T18:43:30.938Z,21.82
2019-01-23T18:45:57.011Z,21.82
2019-01-23T18:48:24.533Z,21.74
2019-01-23T18:58:27.638Z,21.82
2019-01-23T19:00:53.641Z,21.86
2019-01-23T19:03:20.048Z,21.83
2019-01-23T19:05:46.039Z,21.85
2019-01-23T19:08:12.161Z,21.91
2019-01-23T19:10:38.163Z,21.84
2019-01-23T19:13:04.170Z,21.76
2019-01-23T19:15:30.318Z,21.72
2019-01-23T19:17:57.349Z,21.70
2019-01-23T19:20:23.400Z,21.64
2019-01-23T19:22:49.557Z,21.58
2019-01-23T19:25:15.698Z,21.54
2019-01-23T19:27:44.726Z,21.54
2019-01-23T19:30:10.553Z,21.54
2019-01-23T19:32:36.606Z,21.50
2019-01-23T19:35:02.629Z,21.53
2019-01-23T19:37:30.834Z,21.48
2019-01-23T19:39:56.869Z,21.46
2019-01-23T19:42:22.936Z,21.45
2019-01-23T19:44:49.391Z,21.49
2019-01-23T19:47:15.409Z,21.45
2019-01-23T19:49:42.537Z,21.42
2019-01-23T19:52:09.768Z,21.42
2019-01-23T19:54:35.902Z,21.43
2019-01-23T19:57:01.976Z,21.42
2019-01-23T19:59:28.324Z,21.43
2019-01-23T20:01:59.769Z,21.43
2019-01-23T20:04:27.625Z,21.44
2019-01-23T20:06:53.625Z,21.36
2019-01-23T20:11:47.967Z,21.25
2019-01-23T20:14:18.099Z,21.22
2019-01-23T20:19:15.721Z,21.06
2019-01-23T20:21:41.879Z,21.00
2019-01-23T20:24:07.951Z,21.00
2019-01-23T20:26:34.036Z,21.00
2019-01-23T20:29:00.152Z,21.13
2019-01-23T20:31:26.204Z,21.17
2019-01-23T20:33:52.300Z,21.03
2019-01-23T20:36:18.307Z,21.07
2019-01-23T20:38:44.405Z,21.02
2019-01-23T20:41:10.539Z,21.01
2019-01-23T20:43:37.582Z,20.89
2019-01-23T20:46:03.667Z,21.01
2019-01-23T20:48:29.748Z,21.00
2019-01-23T20:50:55.788Z,20.87
2019-01-23T20:53:21.815Z,20.96
2019-01-23T20:55:47.955Z,20.93
2019-01-23T20:58:14.000Z,21.01
2019-01-23T21:00:40.094Z,20.87
2019-01-23T21:03:06.138Z,20.91
2019-01-23T21:05:32.238Z,20.91
2019-01-23T21:07:59.353Z,20.97
2019-01-23T21:10:25.438Z,20.95
2019-01-23T21:12:51.839Z,20.94
2019-01-23T21:15:18.202Z,20.89
2019-01-23T21:17:44.324Z,21.00
2019-01-23T21:20:10.333Z,20.94
2019-01-23T21:22:36.423Z,20.91
2019-01-23T21:25:02.516Z,20.81
2019-01-23T21:27:28.550Z,20.94
2019-01-23T21:29:54.611Z,20.90
2019-01-23T21:32:20.746Z,20.88
2019-01-23T21:34:46.810Z,20.82
2019-01-23T21:37:13.545Z,20.83
2019-01-23T21:39:39.560Z,20.84
2019-01-23T21:42:11.934Z,20.84
2019-01-23T21:44:37.989Z,20.78
2019-01-23T21:47:04.017Z,20.74
2019-01-23T21:49:30.093Z,20.75
2019-01-23T21:51:56.135Z,20.76
2019-01-23T21:54:22.206Z,20.74
2019-01-23T21:56:48.378Z,20.69
2019-01-23T21:59:20.191Z,20.67
2019-01-23T22:01:46.212Z,20.68
2019-01-23T22:04:12.200Z,20.70
2019-01-23T22:06:38.437Z,20.78
2019-01-23T22:09:04.529Z,20.84
2019-01-23T22:11:30.702Z,20.85
2019-01-23T22:13:56.717Z,20.75
2019-01-23T22:16:22.855Z,20.88
2019-01-23T22:18:48.837Z,20.89
2019-01-23T22:21:14.863Z,20.94
2019-01-23T22:23:40.842Z,20.97
2019-01-23T22:26:07.148Z,20.97
2019-01-23T22:28:33.157Z,21.08
2019-01-23T22:30:59.174Z,21.13
2019-01-23T22:33:25.161Z,21.06
2019-01-23T22:35:51.182Z,21.08
2019-01-23T22:38:17.201Z,21.09
2019-01-23T22:40:43.297Z,21.10
2019-01-23T22:43:14.933Z,21.18
2019-01-23T22:45:37.091Z,21.16
2019-01-23T22:48:03.110Z,21.21
2019-01-23T22:50:29.135Z,21.25
2019-01-23T22:52:55.153Z,21.22
2019-01-23T22:55:21.267Z,21.24
2019-01-23T22:57:47.333Z,21.25
2019-01-23T23:00:13.394Z,21.22
2019-01-23T23:02:39.417Z,21.32
2019-01-23T23:05:05.401Z,21.40
2019-01-23T23:07:33.695Z,21.49
2019-01-23T23:12:31.957Z,21.45
2019-01-23T23:17:33.131Z,21.50
2019-01-23T23:20:02.479Z,21.07
2019-01-23T23:22:30.455Z,21.04
2019-01-23T23:24:56.539Z,21.08
2019-01-23T23:27:26.653Z,20.95
2019-01-23T23:29:55.400Z,20.94
2019-01-23T23:34:53.713Z,20.85
2019-01-23T23:37:20.210Z,20.77
2019-01-23T23:44:50.066Z,20.76
2019-01-23T23:47:19.052Z,20.66
2019-01-23T23:49:44.834Z,20.68
2019-01-23T23:52:10.843Z,20.71
2019-01-23T23:54:38.878Z,20.66
2019-01-23T23:57:04.948Z,20.68
2019-01-23T23:59:30.961Z,20.71
